ZGGG Airport Information

Runway Information
Runway 02L Length 11811 ft width 148 ft
Elevation 41 ft Threshold 0 ft Heading 14
Runway 20R Length 11811 ft Width 148 ft
Elevation 43 ft Threshold 0 ft Heading 194
Runway 02R Length 12467 ft width 197 ft
Elevation 45 ft Threshold 0 ft Heading 14
Runway 20L Length 12467 ft Width 197 ft
Elevation 48 ft Threshold 670 ft Heading 194
Airport Frequencies
Type APP Name GUANGZHOU Frequency 120.4 MHZ
Type ATIS Name ATIS Frequency 128.6 MHZ
Type CLD Name CLD Frequency 121.95 MHZ
Type GND Name GND Frequency 121.75 MHZ
Type TWR Name TWR Frequency 118.1 MHZ
Airport Navaids
Type VOR-DME Name Cencun Frequency 114600 KHZ
Type VOR-DME Name Conghua Frequency 113000 KHZ
Type NDB Name Baiyun Frequency 411 KHZ
Type NDB Name Yanbu Frequency 423 KHZ
Type VOR-DME Name Yuantan Frequency 108600 KHZ
Airport Weather Information & NOTAM

Deprecated: The each() function is deprecated. This message will be suppressed on further calls in /home/aerocargo/public_html/lib/functions.php on line 165
ADDS - METARS form results

(0246 UTC 14 April 2021)
Data provider http://aviationweather.gov/metar/data/
 
METAR text: ZGGG 140230Z 18003MPS 140V230 9999 FEW026TCU SCT026 29/21 Q1014 NOSIG
Conditions at: ZGGG (GUANGZHOU/BAIYUN, CN) observed 0230 UTC 14 April 2021
Temperature: 29.0°C (84°F)
Dewpoint: 21.0°C (70°F) [RH = 62%]
Pressure (altimeter): 29.94 inches Hg (1014.0 mb)
Winds: from the S (180 degrees) at 7 MPH (6 knots; 3.1 m/s)
Visibility: 6 or more miles (10+ km)
Ceiling: at least 12,000 feet AGL
Clouds: few clouds at 2600 feet AGL
scattered clouds at 2600 feet AGL
Weather: no significant weather observed at this time

METAR text: ZGGG 140200Z 16004MPS 120V190 9999 FEW026TCU SCT026 28/21 Q1014 NOSIG
Conditions at: ZGGG (GUANGZHOU/BAIYUN, CN) observed 0200 UTC 14 April 2021
Temperature: 28.0°C (82°F)
Dewpoint: 21.0°C (70°F) [RH = 66%]
Pressure (altimeter): 29.94 inches Hg (1014.0 mb)
Winds: from the SSE (160 degrees) at 9 MPH (8 knots; 4.1 m/s)
Visibility: 6 or more miles (10+ km)
Ceiling: at least 12,000 feet AGL
Clouds: few clouds at 2600 feet AGL
scattered clouds at 2600 feet AGL
Weather: no significant weather observed at this time

Forecast for: ZGGG (GUANGZHOU/BAIYUN, CN)
Text: TAF ZGGG 132104Z 1400/1424 17004MPS 8000 BKN040 TX32/1407Z TN23/1422Z
Forecast period: 0000 UTC 14 April 2021 to 0000 UTC 15 April 2021
Forecast type: FROM: standard forecast or significant change
Winds: from the S (170 degrees) at 9 MPH (8 knots; 4.1 m/s)
Visibility: 5 miles (8 km)
Ceiling: 4000 feet AGL
Clouds: broken clouds at 4000 feet AGL
Weather: no significant weather forecast for this period